Time;durP1;ratioP1;P1;durP2;ratioP2;P2;SDS_P1;SDS_P2;PMS_P1;PMS_P2;Temp;Humidity;BMP_temperature;BMP_pressure;BME280_temperature;BME280_humidity;BME280_pressure;Samples;Min_cycle;Max_cycle;Signal;HPM_P1;HPM_P2
2023/10/21 00:00:43;;;;;;;;;1.00;1.00;;;;;21.64;49.48;98837.73;110111;1249;19259;-34
2023/10/21 00:03:29;;;;;;;;;1.00;1.00;;;;;21.64;49.58;98849.36;110141;1251;19973;-34
2023/10/21 00:05:57;;;;;;;;;1.00;1.00;;;;;21.63;49.59;98852.73;110127;1250;19641;-34
2023/10/21 00:08:24;;;;;;;;;1.00;1.00;;;;;21.64;49.67;98859.52;110150;1251;21812;-34
2023/10/21 00:10:51;;;;;;;;;1.00;1.00;;;;;21.66;49.46;98862.25;110137;1250;20074;-35
2023/10/21 00:13:19;;;;;;;;;2.00;2.00;;;;;21.65;49.40;98864.88;110125;1251;19558;-34
2023/10/21 00:15:46;;;;;;;;;1.00;1.00;;;;;21.62;49.71;98867.83;110137;1251;19355;-34
2023/10/21 00:18:13;;;;;;;;;1.00;1.00;;;;;21.62;49.51;98873.77;110151;1250;19860;-34
2023/10/21 00:20:40;;;;;;;;;1.00;1.00;;;;;21.62;49.53;98877.73;110130;1251;20603;-33
2023/10/21 00:23:08;;;;;;;;;1.00;1.00;;;;;21.63;49.46;98882.16;110130;1252;20858;-34
2023/10/21 00:25:35;;;;;;;;;2.00;2.00;;;;;21.64;49.49;98884.91;110146;1265;19219;-34
2023/10/21 00:28:03;;;;;;;;;1.00;1.00;;;;;21.63;49.47;98882.92;110143;1253;18164;-33
2023/10/21 00:30:31;;;;;;;;;1.00;1.00;;;;;21.62;49.30;98889.23;110211;1250;19373;-34
2023/10/21 00:32:58;;;;;;;;;1.00;1.00;;;;;21.61;49.46;98884.88;110160;1250;20056;-34
2023/10/21 00:35:25;;;;;;;;;1.00;1.00;;;;;21.63;49.52;98879.27;110131;1251;20851;-34
2023/10/21 00:37:53;;;;;;;;;1.00;1.00;;;;;21.63;49.50;98872.96;110138;1251;19288;-34
2023/10/21 00:40:20;;;;;;;;;1.00;1.00;;;;;21.63;49.48;98870.61;110129;1265;19129;-34
2023/10/21 00:42:48;;;;;;;;;1.00;1.00;;;;;21.61;49.58;98874.11;110174;1250;19620;-34
2023/10/21 00:45:15;;;;;;;;;1.00;1.00;;;;;21.61;49.35;98873.12;110137;1259;20788;-34
2023/10/21 00:47:43;;;;;;;;;1.00;1.00;;;;;21.59;49.52;98872.41;110165;1251;19990;-34
2023/10/21 00:50:10;;;;;;;;;1.00;1.00;;;;;21.59;49.50;98866.23;110111;1250;20866;-34
2023/10/21 00:52:37;;;;;;;;;1.00;1.00;;;;;21.59;49.37;98864.38;110161;1260;19391;-33
2023/10/21 00:55:05;;;;;;;;;1.00;1.00;;;;;21.58;49.19;98860.36;110143;1265;18600;-33
2023/10/21 00:57:32;;;;;;;;;1.00;1.00;;;;;21.57;49.28;98857.89;110115;1251;19584;-34
2023/10/21 00:59:59;;;;;;;;;2.00;2.00;;;;;21.57;49.29;98856.73;110178;1250;19335;-34
2023/10/21 01:02:26;;;;;;;;;1.00;1.00;;;;;21.59;49.37;98857.67;110188;1264;22418;-33
2023/10/21 01:04:54;;;;;;;;;1.00;1.00;;;;;21.58;49.24;98857.57;110174;1256;19480;-33
2023/10/21 01:07:21;;;;;;;;;1.00;1.00;;;;;21.58;49.46;98862.70;110156;1250;20015;-34
2023/10/21 01:09:48;;;;;;;;;1.50;1.00;;;;;21.58;49.46;98860.71;110184;1256;19882;-35
2023/10/21 01:12:16;;;;;;;;;1.00;1.00;;;;;21.57;49.44;98858.44;110170;1250;19587;-34
2023/10/21 01:14:43;;;;;;;;;2.00;1.00;;;;;21.56;49.32;98855.58;110159;1250;21563;-33
2023/10/21 01:17:10;;;;;;;;;1.00;1.00;;;;;21.56;49.35;98857.54;110150;1256;20007;-33
2023/10/21 01:19:38;;;;;;;;;1.00;1.00;;;;;21.54;49.26;98860.42;110158;1263;19500;-34
2023/10/21 01:22:05;;;;;;;;;1.00;1.00;;;;;21.56;49.53;98868.02;110173;1264;17910;-34
2023/10/21 01:24:32;;;;;;;;;1.00;1.00;;;;;21.56;49.21;98865.33;110140;1264;18509;-34
2023/10/21 01:26:59;;;;;;;;;1.00;1.00;;;;;21.56;49.21;98870.52;110169;1264;19207;-34
2023/10/21 01:29:27;;;;;;;;;1.00;1.00;;;;;21.55;49.23;98872.95;110199;1250;19267;-33
2023/10/21 01:31:54;;;;;;;;;1.00;1.00;;;;;21.54;49.38;98888.91;110198;1250;19844;-34
2023/10/21 01:34:21;;;;;;;;;1.00;1.00;;;;;21.55;49.47;98900.08;110217;1256;20372;-34
2023/10/21 01:36:50;;;;;;;;;1.00;1.00;;;;;21.55;49.39;98902.96;110183;1249;21613;-34
2023/10/21 01:39:18;;;;;;;;;1.00;1.00;;;;;21.54;49.20;98900.55;110181;1257;20180;-34
2023/10/21 01:41:46;;;;;;;;;1.00;1.00;;;;;21.55;49.41;98901.30;110194;1250;19634;-34
2023/10/21 01:44:13;;;;;;;;;1.00;1.00;;;;;21.56;49.32;98891.86;110195;1250;20662;-34
2023/10/21 01:46:40;;;;;;;;;1.00;1.00;;;;;21.58;49.20;98882.64;110123;1250;19977;-33
2023/10/21 01:49:08;;;;;;;;;1.00;1.00;;;;;21.55;49.49;98880.74;110203;1250;19654;-35
2023/10/21 01:51:35;;;;;;;;;1.00;1.00;;;;;21.54;49.35;98891.00;110189;1264;19422;-34
2023/10/21 01:54:04;;;;;;;;;1.00;1.00;;;;;21.55;49.15;98901.92;110172;1264;18575;-34
2023/10/21 01:56:32;;;;;;;;;1.00;1.00;;;;;21.57;49.00;98905.68;110172;1263;18185;-36
2023/10/21 01:58:59;;;;;;;;;1.00;1.00;;;;;21.57;49.18;98909.44;110161;1250;19306;-35
2023/10/21 02:01:27;;;;;;;;;1.00;1.00;;;;;21.56;49.22;98903.48;110172;1265;20010;-35
2023/10/21 02:03:55;;;;;;;;;1.00;1.00;;;;;21.56;49.36;98903.98;110207;1251;19597;-35
2023/10/21 02:06:22;;;;;;;;;1.00;1.00;;;;;21.56;49.30;98909.68;110169;1251;19419;-35
2023/10/21 02:08:49;;;;;;;;;1.00;1.00;;;;;21.55;49.36;98909.88;110169;1266;21888;-35
2023/10/21 02:11:17;;;;;;;;;1.00;1.00;;;;;21.54;49.02;98894.43;110193;1251;19626;-35
2023/10/21 02:13:44;;;;;;;;;1.50;1.00;;;;;21.53;49.14;98889.40;110184;1251;19358;-36
2023/10/21 02:16:11;;;;;;;;;1.00;1.00;;;;;21.55;49.16;98889.73;110171;1249;21383;-35
2023/10/21 02:18:39;;;;;;;;;2.00;1.50;;;;;21.56;48.92;98885.77;110142;1265;19325;-36
2023/10/21 02:21:06;;;;;;;;;1.00;1.00;;;;;21.58;49.02;98884.08;110104;1251;19197;-35
2023/10/21 02:23:33;;;;;;;;;1.00;1.00;;;;;21.56;49.22;98879.89;110151;1251;20085;-35
2023/10/21 02:26:01;;;;;;;;;1.00;1.00;;;;;21.56;49.27;98877.48;110145;1250;20114;-35
2023/10/21 02:28:28;;;;;;;;;1.00;1.00;;;;;21.55;49.05;98884.36;110154;1249;19326;-35
2023/10/21 02:30:55;;;;;;;;;1.00;1.00;;;;;21.54;49.24;98888.44;110090;1265;18635;-35
2023/10/21 02:33:23;;;;;;;;;1.00;1.00;;;;;21.55;48.86;98888.31;110070;1265;18156;-35
2023/10/21 02:35:50;;;;;;;;;2.00;1.00;;;;;21.53;49.23;98884.50;110126;1265;19370;-34
2023/10/21 02:38:17;;;;;;;;;1.00;1.00;;;;;21.54;49.19;98890.42;110177;1265;20130;-35
2023/10/21 02:40:45;;;;;;;;;2.00;1.00;;;;;21.52;49.25;98891.92;110182;1251;19691;-35
2023/10/21 02:43:12;;;;;;;;;1.00;1.00;;;;;21.54;49.14;98887.90;110197;1251;19336;-35
2023/10/21 02:45:39;;;;;;;;;1.00;1.00;;;;;21.54;49.08;98889.52;110164;1251;19893;-34
2023/10/21 02:48:07;;;;;;;;;1.00;1.00;;;;;21.54;49.02;98890.30;110133;1265;18136;-34
2023/10/21 02:50:34;;;;;;;;;1.00;1.00;;;;;21.54;48.98;98889.14;110128;1251;20414;-33
2023/10/21 02:53:01;;;;;;;;;1.00;1.00;;;;;21.53;49.16;98890.17;110132;1251;20157;-34
2023/10/21 02:55:29;;;;;;;;;1.00;1.00;;;;;21.52;49.15;98887.63;110156;1249;19588;-34
2023/10/21 02:57:56;;;;;;;;;2.00;1.00;;;;;21.52;49.09;98889.11;110119;1265;19270;-32
2023/10/21 03:00:24;;;;;;;;;1.00;1.00;;;;;21.53;48.93;98892.77;110131;1265;18554;-35
2023/10/21 03:02:51;;;;;;;;;1.00;1.00;;;;;21.54;49.26;98901.67;110137;1250;20027;-34
2023/10/21 03:05:18;;;;;;;;;1.00;1.00;;;;;21.53;48.91;98906.83;110161;1257;21965;-34
2023/10/21 03:07:46;;;;;;;;;1.00;1.00;;;;;21.54;49.00;98910.36;110128;1251;19966;-34
2023/10/21 03:10:13;;;;;;;;;1.00;1.00;;;;;21.52;49.26;98908.88;110148;1265;18092;-35
2023/10/21 03:12:40;;;;;;;;;1.00;1.00;;;;;21.52;49.06;98918.27;110147;1251;20321;-34
2023/10/21 03:15:08;;;;;;;;;1.00;1.00;;;;;21.51;49.10;98922.54;110163;1265;18624;-35
2023/10/21 03:17:35;;;;;;;;;1.00;1.00;;;;;21.51;49.25;98930.17;110139;1251;19605;-35
2023/10/21 03:20:03;;;;;;;;;1.00;1.00;;;;;21.51;49.04;98932.60;110146;1251;19418;-34
2023/10/21 03:22:30;;;;;;;;;1.00;1.00;;;;;21.52;49.01;98938.98;110159;1251;21497;-34
2023/10/21 03:24:57;;;;;;;;;1.00;1.00;;;;;21.51;48.90;98943.17;110117;1257;19032;-34
2023/10/21 03:27:25;;;;;;;;;1.00;1.00;;;;;21.49;49.11;98960.29;110140;1251;19378;-33
2023/10/21 03:29:52;;;;;;;;;1.00;1.00;;;;;21.50;49.28;98978.30;110120;1265;18583;-34
2023/10/21 03:32:19;;;;;;;;;1.00;1.00;;;;;21.51;49.26;98989.67;110115;1251;22010;-33
2023/10/21 03:34:47;;;;;;;;;1.00;1.00;;;;;21.50;48.97;98997.63;110131;1265;17922;-34
2023/10/21 03:37:14;;;;;;;;;1.00;1.00;;;;;21.50;49.04;99000.55;110123;1251;19970;-33
2023/10/21 03:39:42;;;;;;;;;1.00;1.00;;;;;21.50;49.02;99001.89;110090;1251;19654;-32
2023/10/21 03:42:10;;;;;;;;;1.00;1.00;;;;;21.49;49.01;99000.73;110117;1250;19868;-35
2023/10/21 03:44:37;;;;;;;;;1.00;1.00;;;;;21.49;49.04;98999.36;110147;1251;19987;-35
2023/10/21 03:47:04;;;;;;;;;1.00;1.00;;;;;21.52;49.03;98990.68;110139;1262;19610;-34
2023/10/21 03:49:32;;;;;;;;;1.00;1.00;;;;;21.51;49.03;98982.09;110144;1250;19269;-34
2023/10/21 03:51:59;;;;;;;;;1.00;1.00;;;;;21.52;49.06;98984.69;110147;1251;20032;-35
2023/10/21 03:54:26;;;;;;;;;1.00;1.00;;;;;21.50;48.98;98996.73;110166;1256;19584;-33
2023/10/21 03:56:54;;;;;;;;;1.00;1.00;;;;;21.50;48.98;98993.71;110170;1264;17862;-34
2023/10/21 03:59:21;;;;;;;;;1.00;1.00;;;;;21.48;49.10;98993.02;110204;1250;19849;-34
2023/10/21 04:01:48;;;;;;;;;1.00;1.00;;;;;21.49;49.11;98987.50;110173;1250;20924;-33
2023/10/21 04:04:15;;;;;;;;;1.00;1.00;;;;;21.49;49.09;98978.95;110161;1264;17899;-34
2023/10/21 04:06:43;;;;;;;;;1.00;1.00;;;;;21.51;48.99;98968.23;110153;1264;18696;-34
2023/10/21 04:09:11;;;;;;;;;1.00;1.00;;;;;21.51;48.88;98957.31;110169;1250;19517;-34
2023/10/21 04:11:39;;;;;;;;;1.00;1.00;;;;;21.51;48.86;98941.38;110184;1264;19239;-33
2023/10/21 04:14:06;;;;;;;;;1.00;1.00;;;;;21.52;48.88;98937.38;110151;1250;20003;-35
2023/10/21 04:16:33;;;;;;;;;1.00;1.00;;;;;21.49;48.65;98941.77;110169;1248;21472;-34
2023/10/21 04:19:01;;;;;;;;;1.00;1.00;;;;;21.48;48.89;98946.61;110158;1250;19324;-34
2023/10/21 04:21:28;;;;;;;;;1.00;1.00;;;;;21.49;49.01;98943.62;110153;1250;20026;-34
2023/10/21 04:23:55;;;;;;;;;1.00;1.00;;;;;21.50;48.75;98944.13;110156;1250;20758;-34
2023/10/21 04:26:23;;;;;;;;;1.00;1.00;;;;;21.49;48.85;98945.86;110161;1250;17801;-34
2023/10/21 04:28:50;;;;;;;;;1.00;1.00;;;;;21.49;48.91;98935.89;110167;1250;19962;-34
2023/10/21 04:31:17;;;;;;;;;1.00;1.00;;;;;21.49;49.05;98930.61;110144;1264;21673;-34
2023/10/21 04:33:45;;;;;;;;;1.00;1.00;;;;;21.47;48.79;98929.20;110171;1264;18017;-34
2023/10/21 04:36:12;;;;;;;;;2.00;2.00;;;;;21.47;48.97;98928.50;110166;1251;20011;-34
2023/10/21 04:38:40;;;;;;;;;1.00;1.00;;;;;21.48;48.83;98921.06;110167;1250;23076;-34
2023/10/21 04:41:07;;;;;;;;;2.00;1.00;;;;;21.47;49.10;98920.16;110187;1249;17857;-34
2023/10/21 04:43:34;;;;;;;;;1.00;1.00;;;;;21.47;48.83;98922.17;110160;1250;19979;-34
2023/10/21 04:46:01;;;;;;;;;2.00;2.00;;;;;21.45;49.09;98934.71;110169;1250;19611;-34
2023/10/21 04:48:29;;;;;;;;;2.00;2.00;;;;;21.43;48.90;98937.59;110142;1250;19383;-35
2023/10/21 04:50:56;;;;;;;;;2.00;2.00;;;;;21.46;48.91;98940.34;110139;1250;19982;-34
2023/10/21 04:53:24;;;;;;;;;2.00;2.00;;;;;21.45;48.71;98950.98;110148;1264;19588;-34
2023/10/21 04:55:51;;;;;;;;;1.00;1.00;;;;;21.46;49.02;98951.47;110197;1263;17922;-33
2023/10/21 04:58:19;;;;;;;;;2.00;2.00;;;;;21.45;48.90;98954.00;110070;1250;20066;-34
2023/10/21 05:00:46;;;;;;;;;1.00;1.00;;;;;21.45;48.86;98951.92;110137;1250;19628;-35
2023/10/21 05:03:13;;;;;;;;;2.00;2.00;;;;;21.44;48.64;98947.42;110122;1258;19187;-34
2023/10/21 05:05:41;;;;;;;;;2.00;2.00;;;;;21.45;48.90;98945.34;109997;1249;196936;-35
2023/10/21 05:08:08;;;;;;;;;2.00;1.50;;;;;21.44;48.86;98947.20;110285;1250;19659;-34
2023/10/21 05:10:35;;;;;;;;;2.00;1.00;;;;;21.46;48.72;98959.87;110201;1250;19364;-34
2023/10/21 05:13:03;;;;;;;;;2.50;1.00;;;;;21.45;48.79;98962.39;110172;1250;19893;-34
2023/10/21 05:15:30;;;;;;;;;1.50;1.50;;;;;21.44;48.68;98977.16;110146;1257;19426;-34
2023/10/21 05:17:58;;;;;;;;;1.00;1.00;;;;;21.44;48.90;98984.79;110175;1250;19276;-34
2023/10/21 05:20:25;;;;;;;;;2.00;2.00;;;;;21.44;48.80;98983.33;110162;1250;20153;-35
2023/10/21 05:22:52;;;;;;;;;1.00;1.00;;;;;21.45;48.78;98981.30;110156;1250;21932;-35
2023/10/21 05:25:20;;;;;;;;;2.00;2.00;;;;;21.43;48.81;98971.17;110195;1250;19296;-34
2023/10/21 05:27:47;;;;;;;;;1.50;1.50;;;;;21.43;48.77;98968.77;110174;1257;21002;-35
2023/10/21 05:30:14;;;;;;;;;2.00;2.00;;;;;21.45;48.74;98968.23;110163;1250;19579;-35
2023/10/21 05:32:42;;;;;;;;;2.00;2.00;;;;;21.44;48.85;98973.64;110238;1264;17872;-35
2023/10/21 05:35:09;;;;;;;;;1.00;1.00;;;;;21.44;48.79;98978.54;110072;1250;20100;-34
2023/10/21 05:37:37;;;;;;;;;2.00;2.00;;;;;21.45;48.56;98987.77;110223;1250;19663;-34
2023/10/21 05:40:05;;;;;;;;;2.00;2.00;;;;;21.46;48.61;98994.35;110197;1250;19242;-34
2023/10/21 05:42:32;;;;;;;;;1.00;1.00;;;;;21.44;48.79;99002.77;110137;1250;19969;-35
2023/10/21 05:45:00;;;;;;;;;2.00;2.00;;;;;21.44;48.53;99001.73;110189;1264;18179;-34
2023/10/21 05:47:27;;;;;;;;;1.67;1.67;;;;;21.44;48.60;98997.06;110156;1264;21489;-34
2023/10/21 05:49:55;;;;;;;;;2.00;2.00;;;;;21.44;48.82;99004.15;110165;1264;18550;-34
2023/10/21 05:52:22;;;;;;;;;2.00;2.00;;;;;21.44;48.78;99013.41;110136;1250;19651;-35
2023/10/21 05:54:50;;;;;;;;;4.00;2.00;;;;;21.44;48.76;99023.69;110140;1259;19381;-35
2023/10/21 05:57:17;;;;;;;;;1.50;1.50;;;;;21.45;48.65;99039.64;110070;1251;19916;-35
2023/10/21 05:59:45;;;;;;;;;2.00;2.00;;;;;21.50;48.64;99034.33;110132;1257;19481;-35
2023/10/21 06:02:12;;;;;;;;;2.00;2.00;;;;;21.51;48.66;99039.90;110172;1260;19108;-34
2023/10/21 06:04:39;;;;;;;;;2.00;2.00;;;;;21.52;48.56;99041.05;110131;1251;20040;-33
2023/10/21 06:07:07;;;;;;;;;2.00;2.00;;;;;21.48;48.74;99044.83;110126;1251;21871;-34
2023/10/21 06:09:34;;;;;;;;;4.00;2.00;;;;;21.55;48.86;99058.02;110145;1250;19339;-34
2023/10/21 06:12:01;;;;;;;;;2.00;2.00;;;;;21.60;49.02;99067.05;110127;1257;20009;-34
2023/10/21 06:14:29;;;;;;;;;2.00;2.00;;;;;21.59;49.61;99068.06;110135;1265;18159;-33
2023/10/21 06:16:56;;;;;;;;;2.00;2.00;;;;;21.62;49.41;99073.14;110117;1251;20310;-34
2023/10/21 06:19:23;;;;;;;;;4.00;2.00;;;;;21.66;49.71;99071.00;110115;1257;19918;-33
2023/10/21 06:21:51;;;;;;;;;4.00;4.00;;;;;21.62;49.89;99072.98;110119;1265;21403;-33
2023/10/21 06:24:18;;;;;;;;;5.00;2.00;;;;;21.59;50.09;99077.43;110140;1250;21507;-33
2023/10/21 06:26:45;;;;;;;;;2.00;2.00;;;;;21.58;50.12;99068.58;110142;1249;19827;-33
2023/10/21 06:29:12;;;;;;;;;2.00;2.00;;;;;21.55;50.46;99077.45;110143;1265;18207;-33
2023/10/21 06:31:40;;;;;;;;;4.00;2.00;;;;;21.55;50.28;99092.42;110122;1250;19312;-33
2023/10/21 06:34:08;;;;;;;;;2.00;2.00;;;;;21.58;50.52;99101.53;110138;1265;22208;-34
2023/10/21 06:36:35;;;;;;;;;2.00;2.00;;;;;21.52;50.82;99107.86;110154;1250;19525;-34
2023/10/21 06:39:03;;;;;;;;;2.00;2.00;;;;;21.51;50.88;99120.09;110136;1265;19271;-33
2023/10/21 06:41:30;;;;;;;;;2.00;2.00;;;;;21.52;50.71;99133.65;110134;1251;19948;-33
2023/10/21 06:43:59;;;;;;;;;2.00;2.00;;;;;21.51;50.79;99156.98;110125;1250;21417;-33
2023/10/21 06:46:26;;;;;;;;;2.00;2.00;;;;;21.49;50.78;99156.05;110112;1251;19306;-33
2023/10/21 06:48:53;;;;;;;;;2.67;2.00;;;;;21.51;50.76;99144.23;110131;1257;19941;-34
2023/10/21 06:51:21;;;;;;;;;1.67;1.67;;;;;21.54;50.80;99150.20;110114;1251;19720;-33
2023/10/21 06:53:48;;;;;;;;;2.00;2.00;;;;;21.51;50.51;99145.98;110195;1249;19229;-35
2023/10/21 06:56:16;;;;;;;;;2.00;2.00;;;;;21.50;50.78;99134.80;110163;1250;21779;-34
2023/10/21 06:58:47;;;;;;;;;2.00;2.00;;;;;21.48;50.98;99128.67;110152;1264;18611;-33
2023/10/21 07:01:14;;;;;;;;;2.00;2.00;;;;;21.48;50.98;99127.16;110172;1264;18039;-33
2023/10/21 07:03:42;;;;;;;;;2.00;2.00;;;;;21.47;50.51;99127.61;110215;1264;18690;-32
2023/10/21 07:06:11;;;;;;;;;1.00;1.00;;;;;21.49;50.54;99136.84;110282;1264;18580;-33
2023/10/21 07:08:38;;;;;;;;;2.00;2.00;;;;;21.48;50.70;99136.14;110236;1249;19362;-33
2023/10/21 07:11:06;;;;;;;;;2.00;2.00;;;;;21.48;50.69;99124.38;110252;1264;18576;-33
2023/10/21 07:13:33;;;;;;;;;2.00;2.00;;;;;21.47;50.80;99106.36;110242;1249;19561;-33
2023/10/21 07:16:00;;;;;;;;;2.00;2.00;;;;;21.48;50.58;99110.53;110201;1250;19376;-33
2023/10/21 07:18:28;;;;;;;;;2.00;2.00;;;;;21.47;50.76;99111.23;110206;1250;22038;-32
2023/10/21 07:20:55;;;;;;;;;2.00;2.00;;;;;21.49;50.56;99099.95;110242;1264;18177;-33
2023/10/21 07:23:23;;;;;;;;;1.33;1.33;;;;;21.47;50.68;99102.55;110229;1249;21711;-33
2023/10/21 07:25:50;;;;;;;;;1.00;1.00;;;;;21.46;51.10;99118.05;110202;1250;19970;-33
2023/10/21 07:28:17;;;;;;;;;2.00;2.00;;;;;21.47;50.97;99125.33;110119;1264;18127;-33
2023/10/21 07:30:45;;;;;;;;;2.00;2.00;;;;;21.49;51.38;99145.39;110166;1249;21386;-33
2023/10/21 07:33:13;;;;;;;;;1.67;1.67;;;;;21.49;51.26;99164.13;110218;1250;20153;-34
2023/10/21 07:35:40;;;;;;;;;2.00;2.00;;;;;21.49;51.17;99156.27;110234;1250;19776;-35
2023/10/21 07:38:08;;;;;;;;;1.00;1.00;;;;;21.50;51.19;99181.31;110208;1250;21904;-34
2023/10/21 07:40:35;;;;;;;;;1.00;1.00;;;;;21.51;51.17;99195.89;110203;1250;19808;-33
2023/10/21 07:43:02;;;;;;;;;3.00;2.00;;;;;21.52;51.36;99193.15;110156;1249;23059;-33
2023/10/21 07:45:30;;;;;;;;;2.00;2.00;;;;;21.53;50.93;99190.46;110213;1250;19368;-33
2023/10/21 07:47:57;;;;;;;;;1.00;1.00;;;;;21.58;51.22;99191.89;109998;1250;20032;-33
2023/10/21 07:50:25;;;;;;;;;138.00;100.00;;;;;21.61;51.20;99184.73;109875;1250;19620;-33
2023/10/21 07:52:53;;;;;;;;;199.00;151.00;;;;;21.61;51.75;99179.55;109814;1250;19702;-33
2023/10/21 07:55:20;;;;;;;;;393.50;282.00;;;;;21.63;51.60;99203.52;109792;1253;20004;-34
2023/10/21 07:57:48;;;;;;;;;420.00;281.00;;;;;21.69;51.57;99219.73;109813;1251;20375;-33
2023/10/21 08:00:15;;;;;;;;;509.00;343.50;;;;;21.68;52.30;99214.90;109798;1265;18601;-33
2023/10/21 08:02:42;;;;;;;;;479.50;336.00;;;;;21.63;52.68;99201.83;109821;1251;20007;-33
2023/10/21 08:05:10;;;;;;;;;428.00;309.00;;;;;21.64;52.52;99195.27;109803;1265;19030;-35
2023/10/21 08:07:37;;;;;;;;;351.50;252.00;;;;;21.68;53.42;99206.95;109800;1265;21282;-35
2023/10/21 08:10:05;;;;;;;;;348.67;252.00;;;;;21.71;52.95;99204.20;109790;1265;18561;-35
2023/10/21 08:12:32;;;;;;;;;307.33;210.00;;;;;21.69;52.77;99191.82;109782;1251;21572;-35
2023/10/21 08:15:01;;;;;;;;;237.50;168.00;;;;;21.69;52.56;99214.39;110076;1265;18595;-34
2023/10/21 08:17:28;;;;;;;;;230.67;168.33;;;;;21.71;53.41;99216.19;110081;1251;20334;-33
2023/10/21 08:19:56;;;;;;;;;168.00;127.00;;;;;21.70;53.50;99219.39;110115;1259;20412;-33
2023/10/21 08:22:23;;;;;;;;;142.00;106.00;;;;;21.67;54.00;99222.61;110122;1250;18750;-32
2023/10/21 08:24:51;;;;;;;;;147.00;101.00;;;;;21.70;54.13;99216.22;110107;1250;20782;-32
2023/10/21 08:27:18;;;;;;;;;138.00;99.00;;;;;21.64;53.80;99217.73;110122;1250;21639;-32
2023/10/21 08:29:46;;;;;;;;;106.00;85.00;;;;;21.64;53.95;99214.52;110113;1265;19910;-33
2023/10/21 08:32:14;;;;;;;;;100.00;71.67;;;;;21.66;53.66;99206.87;110109;1266;18683;-34
2023/10/21 08:34:42;;;;;;;;;95.00;72.00;;;;;21.61;53.85;99208.09;110099;1265;18868;-33
2023/10/21 08:37:09;;;;;;;;;98.50;67.50;;;;;21.61;53.65;99200.30;110122;1253;19628;-33
2023/10/21 08:39:36;;;;;;;;;95.00;66.00;;;;;21.60;53.57;99193.02;110130;1251;20032;-33
2023/10/21 08:42:04;;;;;;;;;87.00;62.00;;;;;21.57;53.53;99197.36;110118;1250;21808;-33
2023/10/21 08:44:31;;;;;;;;;70.00;50.00;;;;;21.55;53.60;99202.48;110126;1265;18117;-33
2023/10/21 08:47:00;;;;;;;;;58.00;44.67;;;;;21.55;53.36;99207.78;110143;1265;18544;-33
2023/10/21 08:49:27;;;;;;;;;50.67;39.67;;;;;21.56;53.18;99220.77;110169;1250;21541;-32
2023/10/21 08:51:55;;;;;;;;;45.00;36.00;;;;;21.55;53.34;99230.98;110128;1251;19586;-33
2023/10/21 08:54:22;;;;;;;;;42.50;34.50;;;;;21.56;53.46;99242.77;110181;1251;19935;-33
2023/10/21 08:56:49;;;;;;;;;45.50;34.00;;;;;21.56;53.33;99253.14;110145;1265;18614;-32
2023/10/21 08:59:17;;;;;;;;;37.50;28.50;;;;;21.51;53.76;99260.41;110114;1251;19948;-33
2023/10/21 09:01:45;;;;;;;;;30.00;26.50;;;;;21.51;53.67;99266.13;110095;1251;20166;-32
2023/10/21 09:04:13;;;;;;;;;38.00;25.50;;;;;21.53;53.43;99268.47;110114;1251;20022;-32
2023/10/21 09:06:40;;;;;;;;;27.00;25.00;;;;;21.57;53.41;99262.15;110109;1259;19564;-32
2023/10/21 09:09:09;;;;;;;;;33.00;25.00;;;;;21.59;53.22;99269.02;110129;1250;19934;-32
2023/10/21 09:11:36;;;;;;;;;28.50;21.00;;;;;21.60;53.46;99277.78;110131;1265;18565;-32
2023/10/21 09:14:05;;;;;;;;;33.00;25.00;;;;;21.61;53.98;99295.26;110110;1250;21218;-32
2023/10/21 09:16:33;;;;;;;;;24.00;20.00;;;;;21.66;53.42;99312.50;110124;1251;19965;-33
2023/10/21 09:19:00;;;;;;;;;27.00;25.00;;;;;21.65;53.31;99325.33;110105;1265;20005;-33
2023/10/21 09:21:27;;;;;;;;;17.33;14.67;;;;;21.69;53.42;99331.73;110066;1251;19616;-34
2023/10/21 09:23:55;;;;;;;;;17.00;15.00;;;;;21.66;53.28;99331.04;110078;1265;19045;-34
2023/10/21 09:26:22;;;;;;;;;29.00;19.00;;;;;21.68;53.29;99329.57;110126;1265;19857;-33
2023/10/21 09:28:49;;;;;;;;;26.00;16.00;;;;;21.63;53.73;99334.98;110106;1250;19579;-33
2023/10/21 09:31:17;;;;;;;;;21.00;18.00;;;;;21.70;53.58;99334.75;110112;1265;18615;-34
2023/10/21 09:33:44;;;;;;;;;18.33;15.00;;;;;21.71;53.54;99323.50;110135;1265;18576;-33
2023/10/21 09:36:11;;;;;;;;;21.00;14.00;;;;;21.71;53.25;99318.66;110117;1264;19525;-34
2023/10/21 09:38:39;;;;;;;;;16.00;13.00;;;;;21.69;53.08;99319.74;110136;1265;18538;-34
2023/10/21 09:41:06;;;;;;;;;18.67;17.67;;;;;21.70;53.09;99327.66;110106;1257;19141;-33
2023/10/21 09:43:33;;;;;;;;;18.50;14.50;;;;;21.73;53.19;99325.92;110098;1265;18124;-33
2023/10/21 09:46:04;;;;;;;;;21.00;16.00;;;;;21.70;53.26;99322.11;110100;1251;19964;-34
2023/10/21 09:48:32;;;;;;;;;12.00;12.00;;;;;21.66;53.31;99318.02;110113;1251;20038;-34
2023/10/21 09:50:59;;;;;;;;;14.33;12.00;;;;;21.62;53.61;99322.80;110124;1253;21642;-34
2023/10/21 09:53:26;;;;;;;;;11.50;10.00;;;;;21.59;53.57;99332.40;110149;1253;19986;-34
2023/10/21 09:55:55;;;;;;;;;15.67;12.67;;;;;21.59;53.26;99338.19;110118;1258;22648;-34
2023/10/21 09:58:23;;;;;;;;;12.00;11.00;;;;;21.56;53.31;99336.83;110115;1251;19593;-34
2023/10/21 10:00:50;;;;;;;;;14.00;9.00;;;;;21.55;53.54;99331.85;110091;1250;22639;-34
2023/10/21 10:03:17;;;;;;;;;19.00;18.00;;;;;21.56;53.02;99321.89;110128;1265;18557;-35
2023/10/21 10:05:46;;;;;;;;;11.00;10.00;;;;;21.56;52.97;99311.60;110132;1265;18350;-34
2023/10/21 10:08:14;;;;;;;;;14.00;11.00;;;;;21.57;53.19;99312.80;110127;1257;19811;-34
2023/10/21 10:10:41;;;;;;;;;12.00;9.00;;;;;21.58;52.88;99317.29;110160;1251;19986;-34
2023/10/21 10:13:09;;;;;;;;;9.00;9.00;;;;;21.57;52.77;99328.95;110114;1265;18103;-34
2023/10/21 10:15:37;;;;;;;;;12.00;8.50;;;;;21.56;52.90;99324.30;110115;1253;20172;-34
2023/10/21 10:18:04;;;;;;;;;11.00;9.00;;;;;21.55;52.72;99330.93;110128;1265;18229;-34
2023/10/21 10:20:32;;;;;;;;;12.67;8.00;;;;;21.55;52.69;99340.25;110113;1265;18039;-34
2023/10/21 10:22:59;;;;;;;;;8.00;8.00;;;;;21.55;52.80;99333.11;110086;1265;22530;-34
2023/10/21 10:25:27;;;;;;;;;11.50;10.00;;;;;21.54;52.90;99328.71;110104;1262;20020;-34
2023/10/21 10:27:54;;;;;;;;;8.00;8.00;;;;;21.55;52.71;99333.42;110092;1266;18136;-34
2023/10/21 10:30:22;;;;;;;;;6.00;5.00;;;;;21.56;52.92;99339.14;110096;1265;18813;-34
2023/10/21 10:32:49;;;;;;;;;7.50;7.00;;;;;21.54;52.56;99340.70;110128;1253;20372;-34
2023/10/21 10:35:16;;;;;;;;;8.00;8.00;;;;;21.56;52.50;99346.48;110100;1250;19867;-34
2023/10/21 10:37:44;;;;;;;;;6.00;6.00;;;;;21.54;52.49;99348.07;110098;1252;20596;-34
2023/10/21 10:40:11;;;;;;;;;9.00;7.00;;;;;21.54;52.66;99348.77;110129;1250;19624;-34
2023/10/21 10:42:38;;;;;;;;;7.00;5.00;;;;;21.53;52.63;99353.80;110144;1251;19492;-34
2023/10/21 10:45:06;;;;;;;;;4.00;4.00;;;;;21.52;52.55;99359.02;110135;1253;20046;-34
2023/10/21 10:47:34;;;;;;;;;8.50;7.00;;;;;21.53;52.26;99358.13;110132;1250;22007;-34
2023/10/21 10:50:01;;;;;;;;;6.00;6.00;;;;;21.53;52.44;99352.29;110129;1265;17901;-34
2023/10/21 10:52:31;;;;;;;;;7.33;5.00;;;;;21.52;52.46;99359.17;110138;1251;20162;-34
2023/10/21 10:54:58;;;;;;;;;8.00;5.00;;;;;21.52;52.23;99363.47;110099;1251;19604;-33
2023/10/21 10:57:27;;;;;;;;;5.00;4.00;;;;;21.54;52.13;99375.80;110122;1265;17906;-34
2023/10/21 10:59:54;;;;;;;;;5.00;5.00;;;;;21.53;52.17;99382.80;110112;1265;20825;-33
2023/10/21 11:02:24;;;;;;;;;4.00;4.00;;;;;21.52;52.19;99386.41;110136;1250;22684;-33
2023/10/21 11:04:51;;;;;;;;;5.00;5.00;;;;;21.52;52.35;99391.03;110140;1258;19208;-33
2023/10/21 11:07:19;;;;;;;;;7.00;5.00;;;;;21.50;52.29;99390.98;110127;1250;18647;-33
2023/10/21 11:09:46;;;;;;;;;4.00;4.00;;;;;21.52;52.30;99393.61;110095;1250;18161;-33
2023/10/21 11:12:14;;;;;;;;;7.00;5.00;;;;;21.53;52.02;99387.33;110107;1251;19287;-33
2023/10/21 11:14:42;;;;;;;;;4.67;4.33;;;;;21.52;52.02;99392.52;110104;1251;20028;-33
2023/10/21 11:17:10;;;;;;;;;2.00;2.00;;;;;21.52;52.09;99400.36;110054;1250;19736;-33
2023/10/21 11:19:37;;;;;;;;;3.33;2.00;;;;;21.53;52.02;99400.66;110109;1265;17911;-33
2023/10/21 11:22:08;;;;;;;;;5.00;5.00;;;;;21.51;52.06;99403.72;110162;1251;19901;-33